createdAt,value
2022-11-29T00:00:13.368Z,5.06
2022-11-29T00:01:15.099Z,5.06
2022-11-29T00:02:16.938Z,5.05
2022-11-29T00:03:18.625Z,5.05
2022-11-29T00:04:20.301Z,5.05
2022-11-29T00:05:22.079Z,5.04
2022-11-29T00:06:23.760Z,5.04
2022-11-29T00:07:25.557Z,5.04
2022-11-29T00:08:27.224Z,5.04
2022-11-29T00:09:28.962Z,5.04
2022-11-29T00:10:30.707Z,5.03
2022-11-29T00:11:32.454Z,5.02
2022-11-29T00:12:34.152Z,5.03
2022-11-29T00:13:35.897Z,5.03
2022-11-29T00:14:37.626Z,5.03
2022-11-29T00:15:39.375Z,5.03
2022-11-29T00:16:41.186Z,5.02
2022-11-29T00:17:42.834Z,5.03
2022-11-29T00:18:44.574Z,5.03
2022-11-29T00:19:46.302Z,5.03
2022-11-29T00:20:48.046Z,5.03
2022-11-29T00:21:49.755Z,5.03
2022-11-29T00:22:51.514Z,5.03
2022-11-29T00:23:53.251Z,5.02
2022-11-29T00:24:54.977Z,5.02
2022-11-29T00:25:56.737Z,5.03
2022-11-29T00:26:58.428Z,5.04
2022-11-29T00:28:00.183Z,5.04
2022-11-29T00:29:01.890Z,5.04
2022-11-29T00:30:03.646Z,5.03
2022-11-29T00:31:05.445Z,5.03
2022-11-29T00:32:07.107Z,5.04
2022-11-29T00:33:08.841Z,5.04
2022-11-29T00:34:10.574Z,5.04
2022-11-29T00:35:12.324Z,5.05
2022-11-29T00:36:14.096Z,5.04
2022-11-29T00:37:15.798Z,5.05
2022-11-29T00:38:17.513Z,5.05
2022-11-29T00:39:19.271Z,5.05
2022-11-29T00:40:20.983Z,5.06
2022-11-29T00:41:22.722Z,5.07
2022-11-29T00:42:24.448Z,5.07
2022-11-29T00:43:26.174Z,5.07
2022-11-29T00:44:27.924Z,5.07
2022-11-29T00:45:29.653Z,5.07
2022-11-29T00:46:31.402Z,5.07
2022-11-29T00:47:33.127Z,5.08
2022-11-29T00:48:34.860Z,5.08
2022-11-29T00:49:36.579Z,5.08
2022-11-29T00:50:38.320Z,5.08
2022-11-29T00:51:40.055Z,5.08
2022-11-29T00:52:41.783Z,5.08
2022-11-29T00:53:43.523Z,5.08
2022-11-29T00:54:45.686Z,5.08
2022-11-29T00:55:46.980Z,5.09
2022-11-29T00:56:48.743Z,5.1
2022-11-29T00:57:50.471Z,5.09
2022-11-29T00:58:52.180Z,5.08
2022-11-29T00:59:53.918Z,5.08
2022-11-29T01:00:55.691Z,5.08
2022-11-29T01:01:57.441Z,5.09
2022-11-29T01:02:59.125Z,5.09
2022-11-29T01:04:00.842Z,5.09
2022-11-29T01:05:02.605Z,5.08
2022-11-29T01:06:04.344Z,5.08
2022-11-29T01:07:06.070Z,5.08
2022-11-29T01:08:07.787Z,5.09
2022-11-29T01:09:09.518Z,5.08
2022-11-29T01:10:11.270Z,5.08
2022-11-29T01:11:13.014Z,5.08
2022-11-29T01:12:14.727Z,5.08
2022-11-29T01:13:16.441Z,5.07
2022-11-29T01:14:18.189Z,5.07
2022-11-29T01:15:19.914Z,5.07
2022-11-29T01:16:21.742Z,5.07
2022-11-29T01:17:23.405Z,5.06
2022-11-29T01:18:25.146Z,5.06
2022-11-29T01:19:26.856Z,5.05
2022-11-29T01:20:28.594Z,5.05
2022-11-29T01:21:30.332Z,5.05
2022-11-29T01:22:32.075Z,5.05
2022-11-29T01:23:33.795Z,5.04
2022-11-29T01:24:35.529Z,5.05
2022-11-29T01:25:37.255Z,5.03
2022-11-29T01:26:39.026Z,5.03
2022-11-29T01:27:40.722Z,5.03
2022-11-29T01:28:42.514Z,5.02
2022-11-29T01:29:44.195Z,5.03
2022-11-29T01:30:45.961Z,5.03
2022-11-29T01:31:47.693Z,5.03
2022-11-29T01:32:49.407Z,5.02
2022-11-29T01:33:51.122Z,5.02
2022-11-29T01:34:52.869Z,5.01
2022-11-29T01:35:54.599Z,5.01
2022-11-29T01:36:56.324Z,5.02
2022-11-29T01:37:58.065Z,5.02
2022-11-29T01:38:59.808Z,5.02
2022-11-29T01:40:01.540Z,5.01
2022-11-29T01:41:03.276Z,5.02
2022-11-29T01:42:04.998Z,5
2022-11-29T01:43:06.737Z,5
2022-11-29T01:44:08.475Z,5
2022-11-29T01:45:10.190Z,5
2022-11-29T01:46:12.012Z,4.99
2022-11-29T01:47:13.661Z,4.99
2022-11-29T01:48:15.415Z,4.98
2022-11-29T01:49:17.130Z,4.98
2022-11-29T01:50:18.866Z,4.98
2022-11-29T01:51:20.603Z,4.98
2022-11-29T01:52:22.335Z,4.97
2022-11-29T01:53:24.079Z,4.97
2022-11-29T01:54:25.820Z,4.97
2022-11-29T01:55:27.539Z,4.98
2022-11-29T01:56:29.291Z,4.97
2022-11-29T01:57:31.012Z,4.97
2022-11-29T01:58:32.744Z,4.97
2022-11-29T01:59:34.482Z,4.97
2022-11-29T02:00:36.224Z,4.98
2022-11-29T02:01:38.047Z,4.97
2022-11-29T02:02:39.778Z,4.98
2022-11-29T02:03:41.402Z,4.98
2022-11-29T02:04:43.525Z,4.98
2022-11-29T02:05:44.865Z,4.99
2022-11-29T02:06:46.639Z,4.98
2022-11-29T02:07:48.434Z,4.98
2022-11-29T02:08:50.068Z,4.99
2022-11-29T02:09:51.802Z,4.99
2022-11-29T02:10:53.528Z,4.99
2022-11-29T02:11:55.244Z,4.99
2022-11-29T02:12:56.978Z,4.99
2022-11-29T02:13:58.692Z,4.98
2022-11-29T02:15:00.411Z,4.97
2022-11-29T02:16:02.224Z,4.97
2022-11-29T02:17:03.869Z,4.97
2022-11-29T02:18:05.593Z,4.96
2022-11-29T02:19:07.325Z,4.97
2022-11-29T02:20:09.065Z,4.96
2022-11-29T02:21:10.811Z,4.95
2022-11-29T02:22:12.540Z,4.96
2022-11-29T02:23:14.271Z,4.95
2022-11-29T02:24:16.004Z,4.95
2022-11-29T02:25:17.721Z,4.95
2022-11-29T02:26:19.484Z,4.93
2022-11-29T02:27:21.198Z,4.92
2022-11-29T02:28:22.946Z,4.92
2022-11-29T02:29:24.674Z,4.92
2022-11-29T02:30:26.399Z,4.91
2022-11-29T02:31:28.145Z,4.91
2022-11-29T02:32:29.851Z,4.89
2022-11-29T02:33:31.592Z,4.89
2022-11-29T02:34:33.328Z,4.89
2022-11-29T02:35:35.063Z,4.89
2022-11-29T02:36:36.812Z,4.88
2022-11-29T02:37:38.522Z,4.88
2022-11-29T02:38:40.255Z,4.87
2022-11-29T02:39:42.005Z,4.87
2022-11-29T02:40:43.735Z,4.86
2022-11-29T02:41:45.484Z,4.85
2022-11-29T02:42:52.344Z,4.84
2022-11-29T02:43:48.985Z,4.85
2022-11-29T02:44:50.672Z,4.83
2022-11-29T02:45:52.442Z,4.83
2022-11-29T02:46:54.170Z,4.83
2022-11-29T02:47:55.881Z,4.83
2022-11-29T02:48:57.599Z,4.82
2022-11-29T02:49:59.351Z,4.83
2022-11-29T02:51:01.071Z,4.83
2022-11-29T02:52:02.799Z,4.83
2022-11-29T02:53:04.531Z,4.82
2022-11-29T02:54:06.256Z,4.82
2022-11-29T02:55:07.999Z,4.83
2022-11-29T02:56:09.754Z,4.82
2022-11-29T02:57:11.471Z,4.82
2022-11-29T02:58:13.228Z,4.82
2022-11-29T02:59:14.943Z,4.82
2022-11-29T03:00:16.669Z,4.81
2022-11-29T03:01:18.501Z,4.81
2022-11-29T03:02:20.178Z,4.8
2022-11-29T03:03:21.866Z,4.8
2022-11-29T03:04:23.614Z,4.8
2022-11-29T03:05:25.358Z,4.79
2022-11-29T03:06:27.093Z,4.79
2022-11-29T03:07:28.825Z,4.79
2022-11-29T03:08:30.539Z,4.78
2022-11-29T03:09:32.272Z,4.78
2022-11-29T03:10:34.000Z,4.78
2022-11-29T03:11:35.746Z,4.77
2022-11-29T03:12:37.475Z,4.76
2022-11-29T03:13:39.213Z,4.77
2022-11-29T03:14:40.954Z,4.76
2022-11-29T03:15:42.715Z,4.76
2022-11-29T03:16:44.423Z,4.76
2022-11-29T03:17:46.161Z,4.75
2022-11-29T03:18:47.863Z,4.76
2022-11-29T03:19:49.621Z,4.76
2022-11-29T03:20:51.335Z,4.75
2022-11-29T03:21:53.093Z,4.76
2022-11-29T03:22:54.841Z,4.75
2022-11-29T03:23:56.540Z,4.75
2022-11-29T03:24:58.276Z,4.77
2022-11-29T03:26:00.009Z,4.76
2022-11-29T03:27:01.753Z,4.75
2022-11-29T03:28:03.489Z,4.76
2022-11-29T03:29:05.214Z,4.76
2022-11-29T03:30:06.963Z,4.76
2022-11-29T03:31:08.760Z,4.77
2022-11-29T03:32:10.437Z,4.76
2022-11-29T03:33:12.158Z,4.77
2022-11-29T03:34:13.902Z,4.77
2022-11-29T03:35:15.624Z,4.77
2022-11-29T03:36:17.367Z,4.77
2022-11-29T03:37:19.106Z,4.77
2022-11-29T03:38:20.846Z,4.78
2022-11-29T03:39:22.580Z,4.78
2022-11-29T03:40:24.302Z,4.78
2022-11-29T03:41:26.062Z,4.78
2022-11-29T03:42:27.756Z,4.78
2022-11-29T03:43:29.479Z,4.78
2022-11-29T03:44:31.233Z,4.78
2022-11-29T03:45:32.963Z,4.78
2022-11-29T03:46:34.745Z,4.77
2022-11-29T03:47:36.441Z,4.78
2022-11-29T03:48:38.176Z,4.79
2022-11-29T03:49:39.905Z,4.79
2022-11-29T03:50:41.621Z,4.8
2022-11-29T03:51:43.373Z,4.8
2022-11-29T03:52:45.087Z,4.79
2022-11-29T03:53:46.828Z,4.79
2022-11-29T03:54:48.572Z,4.79
2022-11-29T03:55:50.304Z,4.79
2022-11-29T03:56:52.043Z,4.79
2022-11-29T03:57:53.765Z,4.79
2022-11-29T03:58:55.495Z,4.8
2022-11-29T03:59:57.232Z,4.79
2022-11-29T04:00:58.948Z,4.79
2022-11-29T04:02:00.695Z,4.79
2022-11-29T04:03:02.533Z,4.79
2022-11-29T04:04:04.159Z,4.79
2022-11-29T04:05:05.891Z,4.78
2022-11-29T04:06:07.654Z,4.78
2022-11-29T04:07:09.384Z,4.77
2022-11-29T04:08:11.114Z,4.78
2022-11-29T04:09:12.874Z,4.77
2022-11-29T04:10:14.574Z,4.78
2022-11-29T04:11:16.305Z,4.77
2022-11-29T04:12:18.026Z,4.77
2022-11-29T04:13:19.766Z,4.77
2022-11-29T04:14:21.506Z,4.78
2022-11-29T04:15:23.225Z,4.77
2022-11-29T04:16:25.050Z,4.78
2022-11-29T04:17:26.689Z,4.78
2022-11-29T04:18:28.425Z,4.78
2022-11-29T04:19:30.157Z,4.78
2022-11-29T04:20:34.991Z,4.78
2022-11-29T04:21:33.629Z,4.79
2022-11-29T04:22:35.364Z,4.78
2022-11-29T04:23:37.107Z,4.79
2022-11-29T04:24:38.827Z,4.78
2022-11-29T04:25:40.562Z,4.78
2022-11-29T04:26:42.320Z,4.77
2022-11-29T04:27:44.031Z,4.76
2022-11-29T04:28:45.759Z,4.76
2022-11-29T04:29:47.497Z,4.75
2022-11-29T04:30:49.269Z,4.74
2022-11-29T04:31:50.983Z,4.72
2022-11-29T04:32:52.707Z,4.7
2022-11-29T04:33:54.447Z,4.69
2022-11-29T04:34:56.169Z,4.67
2022-11-29T04:35:57.909Z,4.66
2022-11-29T04:36:59.645Z,4.64
2022-11-29T04:38:01.370Z,4.62
2022-11-29T04:39:03.107Z,4.6
2022-11-29T04:40:04.841Z,4.59
2022-11-29T04:41:06.568Z,4.57
2022-11-29T04:42:08.300Z,4.56
2022-11-29T04:43:10.050Z,4.55
2022-11-29T04:44:11.765Z,4.54
2022-11-29T04:45:13.496Z,4.52
2022-11-29T04:46:15.303Z,4.51
2022-11-29T04:47:16.984Z,4.49
2022-11-29T04:48:18.709Z,4.47
2022-11-29T04:49:20.456Z,4.47
2022-11-29T04:50:22.175Z,4.45
2022-11-29T04:51:23.911Z,4.45
2022-11-29T04:52:25.647Z,4.43
2022-11-29T04:53:27.359Z,4.43
2022-11-29T04:54:29.120Z,4.42
2022-11-29T04:55:31.320Z,4.41
2022-11-29T04:56:32.589Z,4.39
2022-11-29T04:57:34.308Z,4.39
2022-11-29T04:58:36.027Z,4.39
2022-11-29T04:59:37.779Z,4.38
2022-11-29T05:00:39.517Z,4.38
2022-11-29T05:01:41.376Z,4.37
2022-11-29T05:02:43.040Z,4.38
2022-11-29T05:03:46.778Z,4.39
2022-11-29T05:04:46.742Z,4.39
2022-11-29T05:05:48.146Z,4.4
2022-11-29T05:06:49.886Z,4.39
2022-11-29T05:07:51.623Z,4.41
2022-11-29T05:08:53.325Z,4.41
2022-11-29T05:09:55.053Z,4.41
2022-11-29T05:10:56.775Z,4.41
2022-11-29T05:11:58.495Z,4.41
2022-11-29T05:13:00.223Z,4.41
2022-11-29T05:14:01.996Z,4.41
2022-11-29T05:15:03.707Z,4.41
2022-11-29T05:16:05.440Z,4.41
2022-11-29T05:17:07.155Z,4.41
2022-11-29T05:18:08.906Z,4.41
2022-11-29T05:19:10.646Z,4.41
2022-11-29T05:20:12.362Z,4.4
2022-11-29T05:21:14.118Z,4.4
2022-11-29T05:22:15.831Z,4.41
2022-11-29T05:23:17.571Z,4.41
2022-11-29T05:24:19.302Z,4.42
2022-11-29T05:25:21.055Z,4.43
2022-11-29T05:26:22.778Z,4.44
2022-11-29T05:27:24.505Z,4.45
2022-11-29T05:28:26.229Z,4.47
2022-11-29T05:29:27.966Z,4.49
2022-11-29T05:30:29.685Z,4.5
2022-11-29T05:31:31.510Z,4.52
2022-11-29T05:32:33.166Z,4.54
2022-11-29T05:33:34.901Z,4.56
2022-11-29T05:34:36.641Z,4.59
2022-11-29T05:35:38.367Z,4.6
2022-11-29T05:36:40.104Z,4.64
2022-11-29T05:37:41.830Z,4.65
2022-11-29T05:38:43.569Z,4.68
2022-11-29T05:39:45.292Z,4.7
2022-11-29T05:40:47.026Z,4.73
2022-11-29T05:41:48.777Z,4.74
2022-11-29T05:42:50.496Z,4.76
2022-11-29T05:43:52.229Z,4.78
2022-11-29T05:44:53.960Z,4.8
2022-11-29T05:45:55.697Z,4.82
2022-11-29T05:46:57.445Z,4.84
2022-11-29T05:47:59.165Z,4.86
2022-11-29T05:49:00.925Z,4.87
2022-11-29T05:50:02.631Z,4.89
2022-11-29T05:51:04.371Z,4.9
2022-11-29T05:52:06.109Z,4.92
2022-11-29T05:53:07.831Z,4.93
2022-11-29T05:54:09.591Z,4.94
2022-11-29T05:55:11.302Z,4.95
2022-11-29T05:56:13.034Z,4.95
2022-11-29T05:57:14.771Z,4.96
2022-11-29T05:58:16.498Z,4.96
2022-11-29T05:59:18.234Z,4.98
2022-11-29T06:00:19.979Z,4.98
2022-11-29T06:01:21.724Z,4.98
2022-11-29T06:02:23.485Z,4.99
2022-11-29T06:03:25.163Z,5
2022-11-29T06:04:26.907Z,5.01
2022-11-29T06:05:28.625Z,5
2022-11-29T06:06:30.403Z,5.02
2022-11-29T06:07:32.178Z,5.03
2022-11-29T06:08:33.848Z,5.04
2022-11-29T06:09:35.668Z,5.04
2022-11-29T06:10:37.299Z,5.04
2022-11-29T06:11:39.063Z,5.05
2022-11-29T06:12:40.774Z,5.06
2022-11-29T06:13:42.500Z,5.07
2022-11-29T06:14:44.457Z,5.08
2022-11-29T06:15:46.049Z,5.09
2022-11-29T06:16:47.710Z,5.11
2022-11-29T06:17:49.425Z,5.12
2022-11-29T06:18:51.167Z,5.14
2022-11-29T06:19:52.908Z,5.15
2022-11-29T06:20:54.645Z,5.16
2022-11-29T06:21:56.376Z,5.17
2022-11-29T06:22:58.113Z,5.19
2022-11-29T06:23:59.855Z,5.19
2022-11-29T06:25:01.591Z,5.2
2022-11-29T06:26:04.227Z,5.21
2022-11-29T06:27:05.042Z,5.21
2022-11-29T06:28:06.769Z,5.23
2022-11-29T06:29:08.508Z,5.24
2022-11-29T06:30:10.240Z,5.24
2022-11-29T06:31:12.014Z,5.23
2022-11-29T06:32:13.727Z,5.24
2022-11-29T06:33:15.458Z,5.25
2022-11-29T06:34:17.174Z,5.26
2022-11-29T06:35:18.923Z,5.27
2022-11-29T06:36:20.677Z,5.27
2022-11-29T06:37:22.402Z,5.27
2022-11-29T06:38:24.113Z,5.28
2022-11-29T06:39:25.861Z,5.29
2022-11-29T06:40:27.583Z,5.29
2022-11-29T06:41:29.327Z,5.31
2022-11-29T06:42:31.056Z,5.31
2022-11-29T06:43:32.776Z,5.31
2022-11-29T06:44:34.527Z,5.31
2022-11-29T06:45:36.249Z,5.31
2022-11-29T06:46:38.055Z,5.31
2022-11-29T06:47:39.719Z,5.32
2022-11-29T06:48:41.458Z,5.33
2022-11-29T06:49:43.190Z,5.32
2022-11-29T06:50:44.913Z,5.33
2022-11-29T06:51:46.661Z,5.33
2022-11-29T06:52:48.391Z,5.32
2022-11-29T06:53:50.123Z,5.32
2022-11-29T06:54:51.887Z,5.33
2022-11-29T06:55:53.598Z,5.33
2022-11-29T06:56:55.357Z,5.33
2022-11-29T06:57:57.067Z,5.33
2022-11-29T06:58:58.806Z,5.33
2022-11-29T07:00:00.532Z,5.34
2022-11-29T07:01:02.291Z,5.34
2022-11-29T07:02:04.096Z,5.33
2022-11-29T07:03:05.738Z,5.33
2022-11-29T07:04:07.466Z,5.33
2022-11-29T07:05:09.205Z,5.34
2022-11-29T07:06:10.938Z,5.34
2022-11-29T07:07:12.660Z,5.34
2022-11-29T07:08:14.386Z,5.34
2022-11-29T07:09:16.099Z,5.33
2022-11-29T07:10:17.843Z,5.34
2022-11-29T07:11:19.557Z,5.34
2022-11-29T07:12:21.274Z,5.34
2022-11-29T07:13:23.005Z,5.34
2022-11-29T07:14:24.723Z,5.34
2022-11-29T07:15:26.438Z,5.34
2022-11-29T07:16:28.223Z,5.34
2022-11-29T07:17:30.024Z,5.34
2022-11-29T07:18:31.610Z,5.35
2022-11-29T07:19:33.335Z,5.35
2022-11-29T07:20:35.070Z,5.34
2022-11-29T07:21:36.808Z,5.35
2022-11-29T07:22:38.514Z,5.35
2022-11-29T07:23:40.239Z,5.36
2022-11-29T07:24:41.963Z,5.35
2022-11-29T07:25:43.698Z,5.36
2022-11-29T07:26:45.404Z,5.36
2022-11-29T07:27:47.139Z,5.36
2022-11-29T07:28:48.863Z,5.37
2022-11-29T07:29:50.585Z,5.37
2022-11-29T07:30:52.288Z,5.37
2022-11-29T07:31:54.101Z,5.38
2022-11-29T07:33:00.101Z,5.39
2022-11-29T07:33:57.484Z,5.4
2022-11-29T07:34:59.211Z,5.4
2022-11-29T07:36:00.943Z,5.41
2022-11-29T07:37:02.754Z,5.43
2022-11-29T07:38:04.425Z,5.43
2022-11-29T07:39:06.164Z,5.43
2022-11-29T07:40:07.888Z,5.44
2022-11-29T07:41:09.615Z,5.46
2022-11-29T07:42:11.370Z,5.47
2022-11-29T07:43:13.091Z,5.48
2022-11-29T07:44:14.827Z,5.5
2022-11-29T07:45:16.551Z,5.52
2022-11-29T07:46:18.317Z,5.53
2022-11-29T07:47:20.046Z,5.55
2022-11-29T07:48:21.817Z,5.56
2022-11-29T07:49:23.494Z,5.59
2022-11-29T07:50:25.226Z,5.59
2022-11-29T07:51:26.960Z,5.62
2022-11-29T07:52:28.690Z,5.63
2022-11-29T07:53:30.426Z,5.65
2022-11-29T07:54:32.163Z,5.66
2022-11-29T07:55:33.899Z,5.68
2022-11-29T07:56:35.654Z,5.71
2022-11-29T07:57:37.368Z,5.72
2022-11-29T07:58:39.201Z,5.72
2022-11-29T07:59:40.841Z,5.74
2022-11-29T08:00:42.634Z,5.75
2022-11-29T08:01:44.336Z,5.76
2022-11-29T08:02:46.043Z,5.78
2022-11-29T08:03:47.765Z,5.8
2022-11-29T08:04:49.506Z,5.81
2022-11-29T08:05:51.227Z,5.83
2022-11-29T08:06:52.969Z,5.84
2022-11-29T08:07:54.780Z,5.85
2022-11-29T08:08:56.443Z,5.87
2022-11-29T08:09:58.183Z,5.88
2022-11-29T08:10:59.898Z,5.9
2022-11-29T08:12:01.652Z,5.91
2022-11-29T08:13:03.372Z,5.93
2022-11-29T08:14:05.105Z,5.95
2022-11-29T08:15:06.853Z,5.97
2022-11-29T08:16:08.621Z,5.98
2022-11-29T08:17:10.328Z,5.99
2022-11-29T08:18:12.038Z,6
2022-11-29T08:19:13.780Z,6.02
2022-11-29T08:20:15.506Z,6.04
2022-11-29T08:21:17.250Z,6.05
2022-11-29T08:22:18.983Z,6.06
2022-11-29T08:23:20.714Z,6.07
2022-11-29T08:24:22.444Z,6.08
2022-11-29T08:25:24.184Z,6.09
2022-11-29T08:26:31.276Z,6.11
2022-11-29T08:27:27.648Z,6.12
2022-11-29T08:28:29.395Z,6.14
2022-11-29T08:29:31.110Z,6.15
2022-11-29T08:30:32.852Z,6.16
2022-11-29T08:31:34.599Z,6.18
2022-11-29T08:32:36.307Z,6.18
2022-11-29T08:33:38.048Z,6.2
2022-11-29T08:34:39.822Z,6.22
2022-11-29T08:35:41.522Z,6.24
2022-11-29T08:36:43.282Z,6.25
2022-11-29T08:37:44.980Z,6.26
2022-11-29T08:38:46.717Z,6.28
2022-11-29T08:39:48.456Z,6.28
2022-11-29T08:40:50.189Z,6.3
2022-11-29T08:41:51.928Z,6.31
2022-11-29T08:42:53.661Z,6.31
2022-11-29T08:43:55.391Z,6.33
2022-11-29T08:44:57.129Z,6.34
2022-11-29T08:45:58.911Z,6.35
2022-11-29T08:47:00.622Z,6.36
2022-11-29T08:48:02.329Z,6.37
2022-11-29T08:49:04.060Z,6.39
2022-11-29T08:50:05.788Z,6.4
2022-11-29T08:51:07.531Z,6.41
2022-11-29T08:52:09.255Z,6.43
2022-11-29T08:53:10.989Z,6.44
2022-11-29T08:54:12.714Z,6.45
2022-11-29T08:55:14.444Z,6.47
2022-11-29T08:57:04.228Z,6.48
2022-11-29T08:57:39.104Z,6.5
2022-11-29T08:58:19.676Z,6.51
2022-11-29T08:59:21.398Z,6.53
2022-11-29T09:00:23.198Z,6.54
2022-11-29T09:01:24.968Z,6.56
2022-11-29T09:02:26.624Z,6.57
2022-11-29T09:03:28.327Z,6.59
2022-11-29T09:04:30.057Z,6.6
2022-11-29T09:05:31.806Z,6.61
2022-11-29T09:06:33.537Z,6.62
2022-11-29T09:07:35.311Z,6.63
2022-11-29T09:08:37.005Z,6.65
2022-11-29T09:09:38.722Z,6.65
2022-11-29T09:10:40.456Z,6.66
2022-11-29T09:11:45.787Z,6.66
2022-11-29T09:12:43.934Z,6.67
2022-11-29T09:13:45.660Z,6.67
2022-11-29T09:14:47.447Z,6.67
2022-11-29T09:15:49.153Z,6.68
2022-11-29T09:16:50.946Z,6.68
2022-11-29T09:17:52.605Z,6.69
2022-11-29T09:18:54.338Z,6.7
2022-11-29T09:19:56.098Z,6.7
2022-11-29T09:20:57.797Z,6.71
2022-11-29T09:21:59.535Z,6.71
2022-11-29T09:23:01.339Z,6.72
2022-11-29T09:24:03.003Z,6.71
2022-11-29T09:25:04.729Z,6.71
2022-11-29T09:26:06.512Z,6.71
2022-11-29T09:27:08.201Z,6.72
2022-11-29T09:28:09.946Z,6.71
2022-11-29T09:29:11.705Z,6.72
2022-11-29T09:30:13.411Z,6.71
2022-11-29T09:31:15.194Z,6.71
2022-11-29T09:32:16.879Z,6.71
2022-11-29T09:33:18.637Z,6.72
2022-11-29T09:34:20.336Z,6.71
2022-11-29T09:35:22.080Z,6.71
2022-11-29T09:36:28.184Z,6.72
2022-11-29T09:37:25.539Z,6.72
2022-11-29T09:38:27.272Z,6.73
2022-11-29T09:39:29.037Z,6.73
2022-11-29T09:40:30.748Z,6.73
2022-11-29T09:41:32.484Z,6.73
2022-11-29T09:42:34.234Z,6.75
2022-11-29T09:43:35.945Z,6.75
2022-11-29T09:44:37.679Z,6.75
2022-11-29T09:45:39.438Z,6.75
2022-11-29T09:46:41.164Z,6.76
2022-11-29T09:47:42.888Z,6.76
2022-11-29T09:48:44.617Z,6.77
2022-11-29T09:49:46.371Z,6.79
2022-11-29T09:50:48.074Z,6.8
2022-11-29T09:51:49.812Z,6.79
2022-11-29T09:52:51.551Z,6.79
2022-11-29T09:53:53.275Z,6.81
2022-11-29T09:54:55.025Z,6.81
2022-11-29T09:55:56.749Z,6.82
2022-11-29T09:56:58.483Z,6.82
2022-11-29T09:58:00.230Z,6.82
2022-11-29T09:59:01.941Z,6.82
2022-11-29T10:00:03.709Z,6.82
2022-11-29T10:01:05.472Z,6.83
2022-11-29T10:02:07.255Z,6.83
2022-11-29T10:03:08.901Z,6.82
2022-11-29T10:04:10.624Z,6.83
2022-11-29T10:05:12.382Z,6.84
2022-11-29T10:06:14.094Z,6.84
2022-11-29T10:07:15.899Z,6.85
2022-11-29T10:08:17.558Z,6.85
2022-11-29T10:09:19.305Z,6.86
2022-11-29T10:10:21.034Z,6.86
2022-11-29T10:11:22.780Z,6.86
2022-11-29T10:12:24.501Z,6.86
2022-11-29T10:13:26.227Z,6.87
2022-11-29T10:14:27.968Z,6.89
2022-11-29T10:15:29.717Z,6.89
2022-11-29T10:16:31.466Z,6.89
2022-11-29T10:17:33.173Z,6.89
2022-11-29T10:18:34.909Z,6.9
2022-11-29T10:19:36.633Z,6.9
2022-11-29T10:20:41.431Z,6.9
2022-11-29T10:21:40.106Z,6.91
2022-11-29T10:22:41.861Z,6.91
2022-11-29T10:23:44.753Z,6.91
2022-11-29T10:24:45.784Z,6.92
2022-11-29T10:25:47.043Z,6.92
2022-11-29T10:26:48.782Z,6.93
2022-11-29T10:27:50.510Z,6.93
2022-11-29T10:28:52.247Z,6.93
2022-11-29T10:29:53.988Z,6.94
2022-11-29T10:30:55.762Z,6.94
2022-11-29T10:31:57.462Z,6.94
2022-11-29T10:32:59.177Z,6.95
2022-11-29T10:34:00.909Z,6.95
2022-11-29T10:35:02.653Z,6.95
2022-11-29T10:36:04.376Z,6.96
2022-11-29T10:37:06.183Z,6.96
2022-11-29T10:38:29.756Z,6.97
2022-11-29T10:39:13.057Z,6.96
2022-11-29T10:40:11.316Z,6.98
2022-11-29T10:41:13.052Z,6.98
2022-11-29T10:42:14.780Z,6.98
2022-11-29T10:43:16.552Z,6.99
2022-11-29T10:44:18.252Z,6.98
2022-11-29T10:45:19.997Z,6.99
2022-11-29T10:46:21.811Z,6.98
2022-11-29T10:47:23.501Z,6.99
2022-11-29T10:48:25.189Z,6.98
2022-11-29T10:49:26.908Z,6.99
2022-11-29T10:50:28.644Z,6.99
2022-11-29T10:51:30.401Z,7
2022-11-29T10:52:32.124Z,6.99
2022-11-29T10:53:33.870Z,7
2022-11-29T10:54:35.595Z,7
2022-11-29T10:55:37.314Z,7
2022-11-29T10:56:39.065Z,7.01
2022-11-29T10:57:40.813Z,7.01
2022-11-29T10:58:42.542Z,7.02
2022-11-29T10:59:44.264Z,7.02
2022-11-29T11:00:46.015Z,7.03
2022-11-29T11:01:47.806Z,7.03
2022-11-29T11:02:49.481Z,7.05
2022-11-29T11:03:53.068Z,7.05
2022-11-29T11:04:52.923Z,7.06
2022-11-29T11:05:54.691Z,7.07
2022-11-29T11:06:56.398Z,7.08
2022-11-29T11:07:58.186Z,7.09
2022-11-29T11:08:59.849Z,7.09
2022-11-29T11:10:01.586Z,7.11
2022-11-29T11:11:03.343Z,7.12
2022-11-29T11:12:05.077Z,7.13
2022-11-29T11:13:06.790Z,7.14
2022-11-29T11:14:08.578Z,7.15
2022-11-29T11:15:10.266Z,7.16
2022-11-29T11:16:12.000Z,7.17
2022-11-29T11:17:13.792Z,7.18
2022-11-29T11:18:15.459Z,7.19
2022-11-29T11:19:17.204Z,7.21
2022-11-29T11:20:18.941Z,7.22
2022-11-29T11:21:20.658Z,7.24
2022-11-29T11:22:22.393Z,7.25
2022-11-29T11:23:24.133Z,7.25
2022-11-29T11:24:25.858Z,7.26
2022-11-29T11:25:27.607Z,7.26
2022-11-29T11:26:29.312Z,7.27
2022-11-29T11:27:31.082Z,7.28
2022-11-29T11:28:32.795Z,7.29
2022-11-29T11:29:34.520Z,7.3
2022-11-29T11:30:36.362Z,7.3
2022-11-29T11:31:38.000Z,7.31
2022-11-29T11:32:39.759Z,7.31
2022-11-29T11:33:41.491Z,7.32
2022-11-29T11:34:43.613Z,7.31
2022-11-29T11:35:44.922Z,7.32
2022-11-29T11:36:46.668Z,7.32
2022-11-29T11:37:48.430Z,7.3
2022-11-29T11:38:50.124Z,7.31
2022-11-29T11:39:51.968Z,7.3
2022-11-29T11:40:57.927Z,7.3
2022-11-29T11:41:55.317Z,7.29
2022-11-29T11:42:57.059Z,7.3
2022-11-29T11:43:58.815Z,7.3
2022-11-29T11:45:00.894Z,7.29
2022-11-29T11:46:02.347Z,7.29
2022-11-29T11:47:04.004Z,7.28
2022-11-29T11:48:05.746Z,7.29
2022-11-29T11:49:07.474Z,7.3
2022-11-29T11:50:09.204Z,7.29
2022-11-29T11:51:10.933Z,7.29
2022-11-29T11:52:12.710Z,7.29
2022-11-29T11:53:14.399Z,7.29
2022-11-29T11:54:16.130Z,7.3
2022-11-29T11:55:17.869Z,7.3
2022-11-29T11:56:19.603Z,7.31
2022-11-29T11:57:21.330Z,7.31
2022-11-29T11:58:23.064Z,7.31
2022-11-29T11:59:24.805Z,7.33
2022-11-29T12:00:55.452Z,7.33
2022-11-29T12:01:28.268Z,7.36
2022-11-29T12:02:30.164Z,7.36
2022-11-29T12:03:31.785Z,7.37
2022-11-29T12:04:33.481Z,7.38
2022-11-29T12:05:35.211Z,7.4
2022-11-29T12:06:36.938Z,7.41
2022-11-29T12:08:06.779Z,7.42
2022-11-29T12:08:40.442Z,7.43
2022-11-29T12:09:42.150Z,7.45
2022-11-29T12:10:43.877Z,7.46
2022-11-29T12:11:45.610Z,7.48
2022-11-29T12:12:47.374Z,7.49
2022-11-29T12:13:49.077Z,7.52
2022-11-29T12:14:50.836Z,7.54
2022-11-29T12:15:52.606Z,7.55
2022-11-29T12:16:54.281Z,7.57
2022-11-29T12:17:56.012Z,7.58
2022-11-29T12:18:57.764Z,7.6
2022-11-29T12:19:59.483Z,7.61
2022-11-29T12:21:01.200Z,7.64
2022-11-29T12:22:02.978Z,7.65
2022-11-29T12:23:04.686Z,7.65
2022-11-29T12:24:06.419Z,7.68
2022-11-29T12:25:08.171Z,7.68
2022-11-29T12:26:09.985Z,7.69
2022-11-29T12:27:11.690Z,7.71
2022-11-29T12:28:18.593Z,7.71
2022-11-29T12:29:15.088Z,7.71
2022-11-29T12:30:16.825Z,7.72
2022-11-29T12:31:18.710Z,7.72
2022-11-29T12:32:20.304Z,7.72
2022-11-29T12:33:22.036Z,7.73
2022-11-29T12:34:23.666Z,7.72
2022-11-29T12:35:25.408Z,7.73
2022-11-29T12:36:27.146Z,7.72
2022-11-29T12:37:28.883Z,7.74
2022-11-29T12:38:30.603Z,7.74
2022-11-29T12:39:32.344Z,7.74
2022-11-29T12:40:34.077Z,7.74
2022-11-29T12:41:35.810Z,7.74
2022-11-29T12:42:37.556Z,7.74
2022-11-29T12:43:39.277Z,7.74
2022-11-29T12:44:41.004Z,7.75
2022-11-29T12:45:42.735Z,7.74
2022-11-29T12:46:44.529Z,7.73
2022-11-29T12:47:51.550Z,7.73
2022-11-29T12:48:47.949Z,7.73
2022-11-29T12:49:49.666Z,7.72
2022-11-29T12:50:51.396Z,7.73
2022-11-29T12:51:53.126Z,7.73
2022-11-29T12:52:54.883Z,7.72
2022-11-29T12:53:56.625Z,7.72
2022-11-29T12:54:58.333Z,7.71
2022-11-29T12:56:00.107Z,7.71
2022-11-29T12:57:01.815Z,7.71
2022-11-29T12:58:03.564Z,7.7
2022-11-29T12:59:05.274Z,7.7
2022-11-29T13:00:07.021Z,7.69
2022-11-29T13:01:08.682Z,7.7
2022-11-29T13:02:10.452Z,7.7
2022-11-29T13:03:12.159Z,7.69
2022-11-29T13:04:13.812Z,7.7
2022-11-29T13:05:15.572Z,7.7
2022-11-29T13:06:17.288Z,7.7
2022-11-29T13:07:19.092Z,7.7
2022-11-29T13:08:20.762Z,7.71
2022-11-29T13:09:22.557Z,7.71
2022-11-29T13:10:24.232Z,7.71
2022-11-29T13:11:25.958Z,7.71
2022-11-29T13:12:27.741Z,7.73
2022-11-29T13:13:29.434Z,7.72
2022-11-29T13:14:55.747Z,7.73
2022-11-29T13:15:32.872Z,7.74
2022-11-29T13:16:34.719Z,7.75
2022-11-29T13:17:36.376Z,7.75
2022-11-29T13:18:38.126Z,7.76
2022-11-29T13:19:39.815Z,7.77
2022-11-29T13:20:41.538Z,7.78
2022-11-29T13:21:43.258Z,7.78
2022-11-29T13:22:45.011Z,7.79
2022-11-29T13:24:07.876Z,7.8
2022-11-29T13:24:48.906Z,7.8
2022-11-29T13:25:50.136Z,7.81
2022-11-29T13:26:51.884Z,7.82
2022-11-29T13:27:53.612Z,7.82
2022-11-29T13:28:55.339Z,7.83
2022-11-29T13:29:57.053Z,7.84
2022-11-29T13:30:58.809Z,7.84
2022-11-29T13:32:00.579Z,7.85
2022-11-29T13:33:02.233Z,7.86
2022-11-29T13:34:04.012Z,7.86
2022-11-29T13:35:05.663Z,7.87
2022-11-29T13:36:07.383Z,7.87
2022-11-29T13:37:09.103Z,7.87
2022-11-29T13:38:10.829Z,7.87
2022-11-29T13:39:12.561Z,7.87
2022-11-29T13:40:14.269Z,7.87
2022-11-29T13:41:16.001Z,7.87
2022-11-29T13:42:17.718Z,7.87
2022-11-29T13:43:19.460Z,7.87
2022-11-29T13:44:21.164Z,7.88